• Join FlightAware (Why Join?)
  • Login
  • US Flag 
12:42PM EDT


 

Airport Tracker/Info


-or-


 

Live Flight TrackerFlight Track Log ✈ PDT4147 ✈ 16-May-2013 ✈ KROA - KCLT

Flight Track Log - Related Links

Times and Time Zones

All times are in EDT time to prevent confusion due to time zone crossing. See the PDT4147 flight status page for this flight to view local times or setup timezone preferences in your user account.

Time Position Orientation Groundspeed Altitude Reporting Facility
EDT Latitude Longitude Course Direction KTS MPH feet Rate Location/Type
04:36PM 36.8190 -80.0220 176° South  Level FlightAware Approximate
04:37PM 36.7558 -80.0171 176° South  Level FlightAware Approximate
04:38PM 36.6925 -80.0152 177° South  Level FlightAware Approximate
04:39PM 36.6293 -80.0112 177° South  Level FlightAware Approximate
04:40PM 36.5660 -80.0072 177° South  Level FlightAware Approximate
04:41PM 36.5028 -80.0033 177° South  Level FlightAware Approximate
04:42PM 36.4396 -79.9987 174° South  Level FlightAware Approximate
04:43PM 36.3766 -79.9908 174° South  Level FlightAware Approximate
04:44PM 36.3136 -79.9831 177° South  Level FlightAware Approximate
04:45PM 36.2503 -79.9794 177° South  Level FlightAware Approximate
04:46PM 36.1871 -79.9757 177° South  Level FlightAware Approximate
04:47PM 36.1238 -79.9720 177° South  Level FlightAware Approximate
04:48PM 36.0775 -79.9693 177° South  Level FlightAware Approximate
04:49PM 36.0319 -79.9687 230° Southwest  Level FlightAware Approximate
04:50PM 36.0020 -80.0124 230° Southwest  Level FlightAware Approximate
04:51PM 35.9720 -80.0562 230° Southwest  Level FlightAware Approximate
04:52PM 35.9420 -80.0998 230° Southwest  Level FlightAware Approximate
04:53PM 35.9119 -80.1435 230° Southwest  Level FlightAware Approximate
04:53PM 35.9303 -80.4358 227° Southwest 255 293 8,400  Level Atlanta Center
04:53PM 35.8708 -80.4717 206° Southwest 256 295 7,500 -1,020 Descending Atlanta Center
04:54PM 35.8819 -80.1871 230° Southwest  Level FlightAware Approximate
04:55PM 35.8518 -80.2307 230° Southwest  Level FlightAware Approximate
04:55PM 35.7969 -80.5158 206° Southwest 256 295 6,400  Level Atlanta Center
04:56PM 35.8194 -80.2716 225° Southwest  Level FlightAware Approximate
04:56PM 35.7375 -80.5492 204° Southwest 246 283 6,000  Level Atlanta Center
04:57PM 35.7869 -80.3123 225° Southwest  Level FlightAware Approximate
04:57PM 35.6656 -80.5853 202° Southwest 237 273 6,000  Level Atlanta Center
04:58PM 35.7553 -80.3541 227° Southwest  Level FlightAware Approximate
04:58PM 35.6097 -80.6006 193° South 241 277 6,000  Level Atlanta Center
04:59PM 35.5372 -80.6189 192° South 242 278 6,000  Level Atlanta Center
05:00PM 35.4814 -80.6367 195° South 243 280 6,000  Level Atlanta Center
05:01PM 35.4153 -80.6697 202° Southwest 240 276 6,000  Level Atlanta Center
05:02PM 35.3711 -80.7250 226° Southwest 227 261 6,000 -660 Level Atlanta Center
05:03PM 35.3369 -80.7775 231° Southwest 196 226 4,700 -1,380 Descending Atlanta Center
05:04PM 35.3008 -80.8272 228° Southwest 188 216 3,200 -1,200 Descending Atlanta Center
05:05PM 35.2725 -80.8639 227° Southwest 163 188 2,500 -900 Descending Atlanta Center
05:06PM 35.2464 -80.9031 231° Southwest 114 131 1,500 -900 Descending Atlanta Center
05:08PM 35.2000 -80.9333 209° Southwest  Level FlightAware Approximate
05:15PM 35.2137 -80.9491 209° Southwest  Level Estimated